sensor_id;sensor_type;location;lat;lon;timestamp;temperature;humidity
1011;DHT22;494;48.744;10.106;2022-09-17T00:01:41;11.40;50.90
1011;DHT22;494;48.744;10.106;2022-09-17T00:04:10;11.20;51.20
1011;DHT22;494;48.744;10.106;2022-09-17T00:06:39;11.20;51.70
1011;DHT22;494;48.744;10.106;2022-09-17T00:09:09;11.10;51.80
1011;DHT22;494;48.744;10.106;2022-09-17T00:11:40;11.10;51.50
1011;DHT22;494;48.744;10.106;2022-09-17T00:14:14;11.10;51.70
1011;DHT22;494;48.744;10.106;2022-09-17T00:16:46;11.10;51.60
1011;DHT22;494;48.744;10.106;2022-09-17T00:19:18;11.00;52.00
1011;DHT22;494;48.744;10.106;2022-09-17T00:21:49;11.00;52.00
1011;DHT22;494;48.744;10.106;2022-09-17T00:24:19;11.00;51.70
1011;DHT22;494;48.744;10.106;2022-09-17T00:26:48;11.20;51.60
1011;DHT22;494;48.744;10.106;2022-09-17T00:29:17;11.30;51.40
1011;DHT22;494;48.744;10.106;2022-09-17T00:31:46;11.40;51.00
1011;DHT22;494;48.744;10.106;2022-09-17T00:34:15;11.40;50.70
1011;DHT22;494;48.744;10.106;2022-09-17T00:36:43;11.30;51.00
1011;DHT22;494;48.744;10.106;2022-09-17T00:39:12;11.20;51.80
1011;DHT22;494;48.744;10.106;2022-09-17T00:41:43;11.20;52.40
1011;DHT22;494;48.744;10.106;2022-09-17T00:44:42;11.20;52.70
1011;DHT22;494;48.744;10.106;2022-09-17T00:47:21;11.30;52.30
1011;DHT22;494;48.744;10.106;2022-09-17T00:49:54;11.50;51.90
1011;DHT22;494;48.744;10.106;2022-09-17T00:52:27;11.50;51.80
1011;DHT22;494;48.744;10.106;2022-09-17T00:55:03;11.50;52.20
1011;DHT22;494;48.744;10.106;2022-09-17T00:57:40;11.60;51.30
1011;DHT22;494;48.744;10.106;2022-09-17T01:00:11;11.60;50.50
1011;DHT22;494;48.744;10.106;2022-09-17T01:02:40;11.70;50.70
1011;DHT22;494;48.744;10.106;2022-09-17T01:05:11;11.70;50.40
1011;DHT22;494;48.744;10.106;2022-09-17T01:07:53;11.80;50.00
1011;DHT22;494;48.744;10.106;2022-09-17T01:10:49;11.80;49.90
1011;DHT22;494;48.744;10.106;2022-09-17T01:13:46;12.00;49.90
1011;DHT22;494;48.744;10.106;2022-09-17T01:16:30;12.00;48.10
1011;DHT22;494;48.744;10.106;2022-09-17T01:19:26;11.90;48.20
1011;DHT22;494;48.744;10.106;2022-09-17T01:22:12;11.80;48.50
1011;DHT22;494;48.744;10.106;2022-09-17T01:25:13;11.70;48.40
1011;DHT22;494;48.744;10.106;2022-09-17T01:28:11;11.80;47.20
1011;DHT22;494;48.744;10.106;2022-09-17T01:31:10;11.70;48.40
1011;DHT22;494;48.744;10.106;2022-09-17T01:33:55;11.70;48.70
1011;DHT22;494;48.744;10.106;2022-09-17T01:36:44;11.80;48.50
1011;DHT22;494;48.744;10.106;2022-09-17T01:39:31;11.90;48.50
1011;DHT22;494;48.744;10.106;2022-09-17T01:42:18;12.00;47.60
1011;DHT22;494;48.744;10.106;2022-09-17T01:44:55;12.10;47.20
1011;DHT22;494;48.744;10.106;2022-09-17T01:47:35;12.00;46.20
1011;DHT22;494;48.744;10.106;2022-09-17T01:50:08;12.00;46.40
1011;DHT22;494;48.744;10.106;2022-09-17T01:52:41;12.10;46.40
1011;DHT22;494;48.744;10.106;2022-09-17T01:55:14;12.10;45.50
1011;DHT22;494;48.744;10.106;2022-09-17T01:57:47;12.00;46.10
1011;DHT22;494;48.744;10.106;2022-09-17T02:00:21;11.90;46.80
1011;DHT22;494;48.744;10.106;2022-09-17T02:02:56;11.70;46.90
1011;DHT22;494;48.744;10.106;2022-09-17T02:05:33;11.60;47.30
1011;DHT22;494;48.744;10.106;2022-09-17T02:08:09;11.80;47.20
1011;DHT22;494;48.744;10.106;2022-09-17T02:10:44;11.80;46.70
1011;DHT22;494;48.744;10.106;2022-09-17T02:13:20;11.90;47.00
1011;DHT22;494;48.744;10.106;2022-09-17T02:15:54;12.00;46.40
1011;DHT22;494;48.744;10.106;2022-09-17T02:18:31;12.10;45.90
1011;DHT22;494;48.744;10.106;2022-09-17T02:21:07;12.20;44.90
1011;DHT22;494;48.744;10.106;2022-09-17T02:23:47;12.10;45.50
1011;DHT22;494;48.744;10.106;2022-09-17T02:26:24;12.30;45.70
1011;DHT22;494;48.744;10.106;2022-09-17T02:28:58;12.30;45.00
1011;DHT22;494;48.744;10.106;2022-09-17T02:31:32;12.30;45.20
1011;DHT22;494;48.744;10.106;2022-09-17T02:34:03;12.20;45.20
1011;DHT22;494;48.744;10.106;2022-09-17T02:36:34;12.20;45.00
1011;DHT22;494;48.744;10.106;2022-09-17T02:39:03;12.10;45.30
1011;DHT22;494;48.744;10.106;2022-09-17T02:41:43;12.10;45.10
1011;DHT22;494;48.744;10.106;2022-09-17T02:44:26;12.30;45.00
1011;DHT22;494;48.744;10.106;2022-09-17T02:47:32;12.20;44.60
1011;DHT22;494;48.744;10.106;2022-09-17T02:50:29;12.10;44.10
1011;DHT22;494;48.744;10.106;2022-09-17T02:53:18;12.20;44.60
1011;DHT22;494;48.744;10.106;2022-09-17T02:56:05;12.20;44.90
1011;DHT22;494;48.744;10.106;2022-09-17T02:58:45;12.30;44.90
1011;DHT22;494;48.744;10.106;2022-09-17T03:01:22;12.30;43.90
1011;DHT22;494;48.744;10.106;2022-09-17T03:03:56;12.40;43.80
1011;DHT22;494;48.744;10.106;2022-09-17T03:06:30;12.20;43.70
1011;DHT22;494;48.744;10.106;2022-09-17T03:08:58;12.30;44.20
1011;DHT22;494;48.744;10.106;2022-09-17T03:11:27;12.10;44.50
1011;DHT22;494;48.744;10.106;2022-09-17T03:13:55;12.20;44.20
1011;DHT22;494;48.744;10.106;2022-09-17T03:16:24;12.40;43.80
1011;DHT22;494;48.744;10.106;2022-09-17T03:18:53;12.50;43.40
1011;DHT22;494;48.744;10.106;2022-09-17T03:21:21;12.30;43.20
1011;DHT22;494;48.744;10.106;2022-09-17T03:23:51;12.30;43.50
1011;DHT22;494;48.744;10.106;2022-09-17T03:26:20;12.30;43.70
1011;DHT22;494;48.744;10.106;2022-09-17T03:28:48;12.20;43.10
1011;DHT22;494;48.744;10.106;2022-09-17T03:31:16;12.20;43.40
1011;DHT22;494;48.744;10.106;2022-09-17T03:33:45;12.20;43.20
1011;DHT22;494;48.744;10.106;2022-09-17T03:36:14;12.00;43.90
1011;DHT22;494;48.744;10.106;2022-09-17T03:38:42;12.00;45.60
1011;DHT22;494;48.744;10.106;2022-09-17T03:41:12;12.10;44.90
1011;DHT22;494;48.744;10.106;2022-09-17T03:43:41;12.00;45.20
1011;DHT22;494;48.744;10.106;2022-09-17T03:46:09;12.00;45.60
1011;DHT22;494;48.744;10.106;2022-09-17T03:48:38;11.90;45.90
1011;DHT22;494;48.744;10.106;2022-09-17T03:51:06;11.80;46.00
1011;DHT22;494;48.744;10.106;2022-09-17T03:53:35;11.80;46.30
1011;DHT22;494;48.744;10.106;2022-09-17T03:56:05;12.00;46.10
1011;DHT22;494;48.744;10.106;2022-09-17T03:58:35;12.00;45.50
1011;DHT22;494;48.744;10.106;2022-09-17T04:01:04;12.00;45.80
1011;DHT22;494;48.744;10.106;2022-09-17T04:03:33;11.80;45.40
1011;DHT22;494;48.744;10.106;2022-09-17T04:06:02;11.70;46.20
1011;DHT22;494;48.744;10.106;2022-09-17T04:08:30;11.60;46.40
1011;DHT22;494;48.744;10.106;2022-09-17T04:10:59;11.50;46.90
1011;DHT22;494;48.744;10.106;2022-09-17T04:13:28;11.40;47.60
1011;DHT22;494;48.744;10.106;2022-09-17T04:15:57;11.40;48.30
1011;DHT22;494;48.744;10.106;2022-09-17T04:18:26;11.40;48.20
1011;DHT22;494;48.744;10.106;2022-09-17T04:20:54;11.30;47.90
1011;DHT22;494;48.744;10.106;2022-09-17T04:23:23;11.30;48.20
1011;DHT22;494;48.744;10.106;2022-09-17T04:25:51;11.30;47.90
1011;DHT22;494;48.744;10.106;2022-09-17T04:28:20;11.30;47.90
1011;DHT22;494;48.744;10.106;2022-09-17T04:30:48;11.30;47.70
1011;DHT22;494;48.744;10.106;2022-09-17T04:33:18;11.30;47.90
1011;DHT22;494;48.744;10.106;2022-09-17T04:35:47;11.40;47.10
1011;DHT22;494;48.744;10.106;2022-09-17T04:38:15;11.50;46.70
1011;DHT22;494;48.744;10.106;2022-09-17T04:40:46;11.60;46.30
1011;DHT22;494;48.744;10.106;2022-09-17T04:43:15;11.80;45.60
1011;DHT22;494;48.744;10.106;2022-09-17T04:45:45;11.80;45.30
1011;DHT22;494;48.744;10.106;2022-09-17T04:48:15;11.70;44.80
1011;DHT22;494;48.744;10.106;2022-09-17T04:50:45;11.70;45.20
1011;DHT22;494;48.744;10.106;2022-09-17T04:53:14;11.50;45.40
1011;DHT22;494;48.744;10.106;2022-09-17T04:55:42;11.40;45.40
1011;DHT22;494;48.744;10.106;2022-09-17T04:58:11;11.30;46.20
1011;DHT22;494;48.744;10.106;2022-09-17T05:00:40;11.30;46.40
1011;DHT22;494;48.744;10.106;2022-09-17T05:03:08;11.30;46.10
1011;DHT22;494;48.744;10.106;2022-09-17T05:05:37;11.30;46.20
1011;DHT22;494;48.744;10.106;2022-09-17T05:08:07;11.20;46.20
1011;DHT22;494;48.744;10.106;2022-09-17T05:10:35;11.30;46.10
1011;DHT22;494;48.744;10.106;2022-09-17T05:13:04;11.20;46.60
1011;DHT22;494;48.744;10.106;2022-09-17T05:15:32;11.20;46.80
1011;DHT22;494;48.744;10.106;2022-09-17T05:18:01;11.10;46.30
1011;DHT22;494;48.744;10.106;2022-09-17T05:20:30;11.10;46.80
1011;DHT22;494;48.744;10.106;2022-09-17T05:22:58;11.10;46.60
1011;DHT22;494;48.744;10.106;2022-09-17T05:25:28;11.10;47.10
1011;DHT22;494;48.744;10.106;2022-09-17T05:27:57;11.10;47.00
1011;DHT22;494;48.744;10.106;2022-09-17T05:30:27;11.20;46.40
1011;DHT22;494;48.744;10.106;2022-09-17T05:33:00;11.30;46.00
1011;DHT22;494;48.744;10.106;2022-09-17T05:35:30;11.10;46.20
1011;DHT22;494;48.744;10.106;2022-09-17T05:38:00;11.20;46.20
1011;DHT22;494;48.744;10.106;2022-09-17T05:40:31;11.20;45.30
1011;DHT22;494;48.744;10.106;2022-09-17T05:43:01;11.20;45.90
1011;DHT22;494;48.744;10.106;2022-09-17T05:45:32;11.30;45.70
1011;DHT22;494;48.744;10.106;2022-09-17T05:48:02;11.20;45.30
1011;DHT22;494;48.744;10.106;2022-09-17T05:50:32;11.20;45.90
1011;DHT22;494;48.744;10.106;2022-09-17T05:53:03;11.20;46.20
1011;DHT22;494;48.744;10.106;2022-09-17T05:55:34;11.20;45.70
1011;DHT22;494;48.744;10.106;2022-09-17T05:58:08;11.20;45.90
1011;DHT22;494;48.744;10.106;2022-09-17T06:00:38;11.20;45.80
1011;DHT22;494;48.744;10.106;2022-09-17T06:03:10;11.20;45.40
1011;DHT22;494;48.744;10.106;2022-09-17T06:05:39;11.20;45.40
1011;DHT22;494;48.744;10.106;2022-09-17T06:08:09;11.30;44.80
1011;DHT22;494;48.744;10.106;2022-09-17T06:10:38;11.40;44.90
1011;DHT22;494;48.744;10.106;2022-09-17T06:13:07;11.40;43.90
1011;DHT22;494;48.744;10.106;2022-09-17T06:15:35;11.60;43.70
1011;DHT22;494;48.744;10.106;2022-09-17T06:18:04;11.80;43.10
1011;DHT22;494;48.744;10.106;2022-09-17T06:20:32;11.80;42.80
1011;DHT22;494;48.744;10.106;2022-09-17T06:23:01;11.80;43.10
1011;DHT22;494;48.744;10.106;2022-09-17T06:25:29;11.80;43.30
1011;DHT22;494;48.744;10.106;2022-09-17T06:28:01;11.80;43.20
1011;DHT22;494;48.744;10.106;2022-09-17T06:30:29;11.80;42.40
1011;DHT22;494;48.744;10.106;2022-09-17T06:32:59;11.80;42.40
1011;DHT22;494;48.744;10.106;2022-09-17T06:35:28;11.70;42.10
1011;DHT22;494;48.744;10.106;2022-09-17T06:37:57;11.60;42.50
1011;DHT22;494;48.744;10.106;2022-09-17T06:40:25;11.50;43.30
1011;DHT22;494;48.744;10.106;2022-09-17T06:42:56;11.50;43.70
1011;DHT22;494;48.744;10.106;2022-09-17T06:45:26;11.60;43.70
1011;DHT22;494;48.744;10.106;2022-09-17T06:47:55;11.60;43.30
1011;DHT22;494;48.744;10.106;2022-09-17T06:50:23;11.70;43.50
1011;DHT22;494;48.744;10.106;2022-09-17T06:52:53;11.70;43.50
1011;DHT22;494;48.744;10.106;2022-09-17T06:55:21;11.70;43.30
1011;DHT22;494;48.744;10.106;2022-09-17T06:57:50;11.70;44.10
1011;DHT22;494;48.744;10.106;2022-09-17T07:00:18;11.60;43.40
1011;DHT22;494;48.744;10.106;2022-09-17T07:02:55;11.50;44.70
1011;DHT22;494;48.744;10.106;2022-09-17T07:05:25;11.70;44.50
1011;DHT22;494;48.744;10.106;2022-09-17T07:07:55;11.80;44.00
1011;DHT22;494;48.744;10.106;2022-09-17T07:10:23;11.90;44.10
1011;DHT22;494;48.744;10.106;2022-09-17T07:12:52;11.90;44.10
1011;DHT22;494;48.744;10.106;2022-09-17T07:15:21;11.90;43.30
1011;DHT22;494;48.744;10.106;2022-09-17T07:17:50;12.00;43.30
1011;DHT22;494;48.744;10.106;2022-09-17T07:20:20;12.10;43.40
1011;DHT22;494;48.744;10.106;2022-09-17T07:22:54;12.00;45.50
1011;DHT22;494;48.744;10.106;2022-09-17T07:25:24;12.00;47.00
1011;DHT22;494;48.744;10.106;2022-09-17T07:27:53;11.90;48.30
1011;DHT22;494;48.744;10.106;2022-09-17T07:30:22;11.70;49.50
1011;DHT22;494;48.744;10.106;2022-09-17T07:32:51;11.60;49.90
1011;DHT22;494;48.744;10.106;2022-09-17T07:35:21;11.60;50.50
1011;DHT22;494;48.744;10.106;2022-09-17T07:37:49;11.60;51.20
1011;DHT22;494;48.744;10.106;2022-09-17T07:40:17;11.50;51.80
1011;DHT22;494;48.744;10.106;2022-09-17T07:42:46;11.40;52.50
1011;DHT22;494;48.744;10.106;2022-09-17T07:45:14;11.20;52.90
1011;DHT22;494;48.744;10.106;2022-09-17T07:47:43;11.20;53.00
1011;DHT22;494;48.744;10.106;2022-09-17T07:50:11;11.10;54.00
1011;DHT22;494;48.744;10.106;2022-09-17T07:52:46;10.80;54.60
1011;DHT22;494;48.744;10.106;2022-09-17T07:55:15;10.70;56.40
1011;DHT22;494;48.744;10.106;2022-09-17T07:57:50;10.70;56.70
1011;DHT22;494;48.744;10.106;2022-09-17T08:00:19;10.80;56.80
1011;DHT22;494;48.744;10.106;2022-09-17T08:02:52;10.90;56.80
1011;DHT22;494;48.744;10.106;2022-09-17T08:05:21;11.10;56.40
1011;DHT22;494;48.744;10.106;2022-09-17T08:07:53;11.20;55.70
1011;DHT22;494;48.744;10.106;2022-09-17T08:10:23;11.10;55.80
1011;DHT22;494;48.744;10.106;2022-09-17T08:12:55;11.10;56.10
1011;DHT22;494;48.744;10.106;2022-09-17T08:15:28;11.10;56.20
1011;DHT22;494;48.744;10.106;2022-09-17T08:17:56;11.20;56.50
1011;DHT22;494;48.744;10.106;2022-09-17T08:20:25;11.30;56.40
1011;DHT22;494;48.744;10.106;2022-09-17T08:23:00;11.50;56.30
1011;DHT22;494;48.744;10.106;2022-09-17T08:25:29;11.60;55.80
1011;DHT22;494;48.744;10.106;2022-09-17T08:27:57;11.60;55.60
1011;DHT22;494;48.744;10.106;2022-09-17T08:30:26;11.60;55.90
1011;DHT22;494;48.744;10.106;2022-09-17T08:32:54;11.60;55.80
1011;DHT22;494;48.744;10.106;2022-09-17T08:35:23;11.60;55.80
1011;DHT22;494;48.744;10.106;2022-09-17T08:37:53;11.80;56.40
1011;DHT22;494;48.744;10.106;2022-09-17T08:40:24;12.00;56.60
1011;DHT22;494;48.744;10.106;2022-09-17T08:42:57;12.30;53.90
1011;DHT22;494;48.744;10.106;2022-09-17T08:45:28;12.30;52.90
1011;DHT22;494;48.744;10.106;2022-09-17T08:48:01;12.10;52.60
1011;DHT22;494;48.744;10.106;2022-09-17T08:50:34;12.00;51.80
1011;DHT22;494;48.744;10.106;2022-09-17T08:53:30;11.80;53.50
1011;DHT22;494;48.744;10.106;2022-09-17T08:56:13;11.70;54.50
1011;DHT22;494;48.744;10.106;2022-09-17T08:58:59;11.70;56.00
1011;DHT22;494;48.744;10.106;2022-09-17T09:01:40;11.80;56.20
1011;DHT22;494;48.744;10.106;2022-09-17T09:04:30;11.70;55.40
1011;DHT22;494;48.744;10.106;2022-09-17T09:07:12;11.70;55.00
1011;DHT22;494;48.744;10.106;2022-09-17T09:09:50;11.70;55.10
1011;DHT22;494;48.744;10.106;2022-09-17T09:12:25;11.70;54.60
1011;DHT22;494;48.744;10.106;2022-09-17T09:15:01;11.90;54.30
1011;DHT22;494;48.744;10.106;2022-09-17T09:17:37;11.90;52.60
1011;DHT22;494;48.744;10.106;2022-09-17T09:20:15;12.00;57.60
1011;DHT22;494;48.744;10.106;2022-09-17T09:22:48;12.60;50.50
1011;DHT22;494;48.744;10.106;2022-09-17T09:25:22;12.60;49.20
1011;DHT22;494;48.744;10.106;2022-09-17T09:28:10;12.60;51.30
1011;DHT22;494;48.744;10.106;2022-09-17T09:30:57;12.70;51.80
1011;DHT22;494;48.744;10.106;2022-09-17T09:33:35;12.70;50.60
1011;DHT22;494;48.744;10.106;2022-09-17T09:36:14;12.90;50.80
1011;DHT22;494;48.744;10.106;2022-09-17T09:38:52;12.80;48.20
1011;DHT22;494;48.744;10.106;2022-09-17T09:41:28;12.80;49.00
1011;DHT22;494;48.744;10.106;2022-09-17T09:44:09;13.00;49.60
1011;DHT22;494;48.744;10.106;2022-09-17T09:47:04;13.20;49.10
1011;DHT22;494;48.744;10.106;2022-09-17T09:49:52;13.10;46.60
1011;DHT22;494;48.744;10.106;2022-09-17T09:52:46;13.20;46.80
1011;DHT22;494;48.744;10.106;2022-09-17T09:55:34;12.80;48.90
1011;DHT22;494;48.744;10.106;2022-09-17T09:58:19;12.90;47.40
1011;DHT22;494;48.744;10.106;2022-09-17T10:00:54;12.80;48.30
1011;DHT22;494;48.744;10.106;2022-09-17T10:03:26;12.70;48.30
1011;DHT22;494;48.744;10.106;2022-09-17T10:06:00;12.40;48.70
1011;DHT22;494;48.744;10.106;2022-09-17T10:08:31;12.40;50.40
1011;DHT22;494;48.744;10.106;2022-09-17T10:11:02;12.50;48.60
1011;DHT22;494;48.744;10.106;2022-09-17T10:13:34;12.60;49.30
1011;DHT22;494;48.744;10.106;2022-09-17T10:16:18;12.90;48.90
1011;DHT22;494;48.744;10.106;2022-09-17T10:18:50;13.10;46.40
1011;DHT22;494;48.744;10.106;2022-09-17T10:21:45;13.30;46.80
1011;DHT22;494;48.744;10.106;2022-09-17T10:24:24;13.20;47.10
1011;DHT22;494;48.744;10.106;2022-09-17T10:27:01;13.20;47.50
1011;DHT22;494;48.744;10.106;2022-09-17T10:29:33;13.90;46.00
1011;DHT22;494;48.744;10.106;2022-09-17T10:32:03;14.80;42.50
1011;DHT22;494;48.744;10.106;2022-09-17T10:34:32;15.60;37.80
1011;DHT22;494;48.744;10.106;2022-09-17T10:37:01;16.00;35.20
1011;DHT22;494;48.744;10.106;2022-09-17T10:39:31;15.70;33.30
1011;DHT22;494;48.744;10.106;2022-09-17T10:42:04;15.10;34.60
1011;DHT22;494;48.744;10.106;2022-09-17T10:44:34;14.70;35.50
1011;DHT22;494;48.744;10.106;2022-09-17T10:47:10;14.30;37.50
1011;DHT22;494;48.744;10.106;2022-09-17T10:49:46;14.20;38.20
1011;DHT22;494;48.744;10.106;2022-09-17T10:52:23;14.20;38.70
1011;DHT22;494;48.744;10.106;2022-09-17T10:58:08;15.30;35.30
1011;DHT22;494;48.744;10.106;2022-09-17T11:00:54;15.40;34.40
1011;DHT22;494;48.744;10.106;2022-09-17T11:03:48;15.50;33.50
1011;DHT22;494;48.744;10.106;2022-09-17T11:06:41;15.40;33.60
1011;DHT22;494;48.744;10.106;2022-09-17T11:09:26;15.00;34.30
1011;DHT22;494;48.744;10.106;2022-09-17T11:12:14;15.60;34.40
1011;DHT22;494;48.744;10.106;2022-09-17T11:15:02;16.60;30.70
1011;DHT22;494;48.744;10.106;2022-09-17T11:17:54;18.00;27.40
1011;DHT22;494;48.744;10.106;2022-09-17T11:20:50;19.10;22.60
1011;DHT22;494;48.744;10.106;2022-09-17T11:27:07;19.40;20.40
1011;DHT22;494;48.744;10.106;2022-09-17T11:29:55;19.40;20.00
1011;DHT22;494;48.744;10.106;2022-09-17T11:35:50;18.80;20.60
1011;DHT22;494;48.744;10.106;2022-09-17T11:38:34;18.00;22.50
1011;DHT22;494;48.744;10.106;2022-09-17T11:41:13;17.30;24.40
1011;DHT22;494;48.744;10.106;2022-09-17T11:43:52;17.10;26.40
1011;DHT22;494;48.744;10.106;2022-09-17T11:46:36;17.20;26.90
1011;DHT22;494;48.744;10.106;2022-09-17T11:49:18;17.40;25.40
1011;DHT22;494;48.744;10.106;2022-09-17T11:52:05;17.80;23.60
1011;DHT22;494;48.744;10.106;2022-09-17T11:54:43;18.70;21.90
1011;DHT22;494;48.744;10.106;2022-09-17T11:57:19;19.90;19.10
1011;DHT22;494;48.744;10.106;2022-09-17T11:59:52;20.40;16.80
1011;DHT22;494;48.744;10.106;2022-09-17T12:02:29;19.90;17.80
1011;DHT22;494;48.744;10.106;2022-09-17T12:05:15;19.20;19.30
1011;DHT22;494;48.744;10.106;2022-09-17T12:07:53;18.80;23.50
1011;DHT22;494;48.744;10.106;2022-09-17T12:10:36;17.90;28.40
1011;DHT22;494;48.744;10.106;2022-09-17T12:13:23;16.80;31.60
1011;DHT22;494;48.744;10.106;2022-09-17T12:16:06;15.90;35.70
1011;DHT22;494;48.744;10.106;2022-09-17T12:19:01;15.20;38.50
1011;DHT22;494;48.744;10.106;2022-09-17T12:21:36;14.80;41.60
1011;DHT22;494;48.744;10.106;2022-09-17T12:24:17;14.90;42.20
1011;DHT22;494;48.744;10.106;2022-09-17T12:27:04;15.40;43.90
1011;DHT22;494;48.744;10.106;2022-09-17T12:30:05;16.00;40.40
1011;DHT22;494;48.744;10.106;2022-09-17T12:32:51;16.20;38.30
1011;DHT22;494;48.744;10.106;2022-09-17T12:35:54;16.00;37.10
1011;DHT22;494;48.744;10.106;2022-09-17T12:38:51;15.40;36.50
1011;DHT22;494;48.744;10.106;2022-09-17T12:41:57;14.90;38.00
1011;DHT22;494;48.744;10.106;2022-09-17T12:44:46;14.20;39.20
1011;DHT22;494;48.744;10.106;2022-09-17T12:47:55;13.90;42.30
1011;DHT22;494;48.744;10.106;2022-09-17T12:50:50;13.70;43.80
1011;DHT22;494;48.744;10.106;2022-09-17T12:53:31;13.80;47.10
1011;DHT22;494;48.744;10.106;2022-09-17T12:56:20;13.80;45.30
1011;DHT22;494;48.744;10.106;2022-09-17T12:59:04;13.80;43.60
1011;DHT22;494;48.744;10.106;2022-09-17T13:01:42;13.80;43.70
1011;DHT22;494;48.744;10.106;2022-09-17T13:04:24;13.80;42.50
1011;DHT22;494;48.744;10.106;2022-09-17T13:07:52;13.90;45.00
1011;DHT22;494;48.744;10.106;2022-09-17T13:10:46;14.30;40.80
1011;DHT22;494;48.744;10.106;2022-09-17T13:13:39;14.30;41.00
1011;DHT22;494;48.744;10.106;2022-09-17T13:16:18;14.40;41.40
1011;DHT22;494;48.744;10.106;2022-09-17T13:18:55;14.30;41.30
1011;DHT22;494;48.744;10.106;2022-09-17T13:21:48;14.20;42.50
1011;DHT22;494;48.744;10.106;2022-09-17T13:24:22;14.30;41.90
1011;DHT22;494;48.744;10.106;2022-09-17T13:26:56;14.30;41.50
1011;DHT22;494;48.744;10.106;2022-09-17T13:29:58;14.30;41.80
1011;DHT22;494;48.744;10.106;2022-09-17T13:32:49;14.30;40.70
1011;DHT22;494;48.744;10.106;2022-09-17T13:35:50;14.10;42.70
1011;DHT22;494;48.744;10.106;2022-09-17T13:38:20;14.00;43.60
1011;DHT22;494;48.744;10.106;2022-09-17T13:40:51;13.80;44.60
1011;DHT22;494;48.744;10.106;2022-09-17T13:43:43;13.70;46.40
1011;DHT22;494;48.744;10.106;2022-09-17T13:46:21;13.50;47.20
1011;DHT22;494;48.744;10.106;2022-09-17T13:48:56;13.40;47.20
1011;DHT22;494;48.744;10.106;2022-09-17T13:51:47;12.90;48.10
1011;DHT22;494;48.744;10.106;2022-09-17T13:54:20;12.10;48.00
1011;DHT22;494;48.744;10.106;2022-09-17T13:57:12;11.50;49.50
1011;DHT22;494;48.744;10.106;2022-09-17T13:59:53;11.10;54.20
1011;DHT22;494;48.744;10.106;2022-09-17T14:02:30;10.80;55.30
1011;DHT22;494;48.744;10.106;2022-09-17T14:05:24;10.70;56.40
1011;DHT22;494;48.744;10.106;2022-09-17T14:08:26;10.80;56.90
1011;DHT22;494;48.744;10.106;2022-09-17T14:11:00;10.80;56.10
1011;DHT22;494;48.744;10.106;2022-09-17T14:13:42;10.90;55.80
1011;DHT22;494;48.744;10.106;2022-09-17T14:16:34;11.00;56.10
1011;DHT22;494;48.744;10.106;2022-09-17T14:19:30;11.00;56.40
1011;DHT22;494;48.744;10.106;2022-09-17T14:22:12;10.90;56.80
1011;DHT22;494;48.744;10.106;2022-09-17T14:24:47;11.10;57.70
1011;DHT22;494;48.744;10.106;2022-09-17T14:27:29;11.40;57.50
1011;DHT22;494;48.744;10.106;2022-09-17T14:30:14;11.90;59.50
1011;DHT22;494;48.744;10.106;2022-09-17T14:32:52;13.10;53.30
1011;DHT22;494;48.744;10.106;2022-09-17T14:35:32;14.00;49.20
1011;DHT22;494;48.744;10.106;2022-09-17T14:38:10;14.70;44.80
1011;DHT22;494;48.744;10.106;2022-09-17T14:40:45;15.40;43.80
1011;DHT22;494;48.744;10.106;2022-09-17T14:43:18;15.90;38.40
1011;DHT22;494;48.744;10.106;2022-09-17T14:45:54;16.70;35.40
1011;DHT22;494;48.744;10.106;2022-09-17T14:48:30;17.80;31.20
1011;DHT22;494;48.744;10.106;2022-09-17T14:51:26;19.00;28.50
1011;DHT22;494;48.744;10.106;2022-09-17T14:54:18;19.90;22.80
1011;DHT22;494;48.744;10.106;2022-09-17T14:56:54;20.60;21.30
1011;DHT22;494;48.744;10.106;2022-09-17T14:59:36;20.60;19.90
1011;DHT22;494;48.744;10.106;2022-09-17T15:02:34;20.70;19.20
1011;DHT22;494;48.744;10.106;2022-09-17T15:05:20;20.80;20.70
1011;DHT22;494;48.744;10.106;2022-09-17T15:08:10;20.50;21.30
1011;DHT22;494;48.744;10.106;2022-09-17T15:10:48;19.90;20.80
1011;DHT22;494;48.744;10.106;2022-09-17T15:13:22;18.90;23.90
1011;DHT22;494;48.744;10.106;2022-09-17T15:16:02;18.20;24.20
1011;DHT22;494;48.744;10.106;2022-09-17T15:18:37;18.30;25.50
1011;DHT22;494;48.744;10.106;2022-09-17T15:21:20;18.80;25.10
1011;DHT22;494;48.744;10.106;2022-09-17T15:23:58;19.40;21.90
1011;DHT22;494;48.744;10.106;2022-09-17T15:26:34;19.70;21.30
1011;DHT22;494;48.744;10.106;2022-09-17T15:29:09;19.90;21.50
1011;DHT22;494;48.744;10.106;2022-09-17T15:31:38;20.00;20.80
1011;DHT22;494;48.744;10.106;2022-09-17T15:34:09;19.50;22.10
1011;DHT22;494;48.744;10.106;2022-09-17T15:36:39;19.50;22.00
1011;DHT22;494;48.744;10.106;2022-09-17T15:39:28;19.50;25.10
1011;DHT22;494;48.744;10.106;2022-09-17T15:41:59;19.40;24.80
1011;DHT22;494;48.744;10.106;2022-09-17T15:44:31;19.10;25.00
1011;DHT22;494;48.744;10.106;2022-09-17T15:47:42;18.60;25.90
1011;DHT22;494;48.744;10.106;2022-09-17T15:50:20;18.20;26.40
1011;DHT22;494;48.744;10.106;2022-09-17T15:52:57;17.90;27.00
1011;DHT22;494;48.744;10.106;2022-09-17T15:55:42;17.80;27.00
1011;DHT22;494;48.744;10.106;2022-09-17T15:58:24;17.40;27.60
1011;DHT22;494;48.744;10.106;2022-09-17T16:04:19;18.20;25.50
1011;DHT22;494;48.744;10.106;2022-09-17T16:06:55;17.60;27.10
1011;DHT22;494;48.744;10.106;2022-09-17T16:09:39;17.30;29.50
1011;DHT22;494;48.744;10.106;2022-09-17T16:12:12;17.40;29.40
1011;DHT22;494;48.744;10.106;2022-09-17T16:14:44;17.40;29.80
1011;DHT22;494;48.744;10.106;2022-09-17T16:17:24;17.10;28.80
1011;DHT22;494;48.744;10.106;2022-09-17T16:20:15;16.80;31.30
1011;DHT22;494;48.744;10.106;2022-09-17T16:22:46;16.70;32.30
1011;DHT22;494;48.744;10.106;2022-09-17T16:25:16;16.20;32.30
1011;DHT22;494;48.744;10.106;2022-09-17T16:27:49;15.70;34.50
1011;DHT22;494;48.744;10.106;2022-09-17T16:30:24;15.10;36.30
1011;DHT22;494;48.744;10.106;2022-09-17T16:32:54;14.70;37.40
1011;DHT22;494;48.744;10.106;2022-09-17T16:35:24;14.40;39.80
1011;DHT22;494;48.744;10.106;2022-09-17T16:37:55;14.10;40.80
1011;DHT22;494;48.744;10.106;2022-09-17T16:40:25;13.90;42.20
1011;DHT22;494;48.744;10.106;2022-09-17T16:42:59;13.70;43.30
1011;DHT22;494;48.744;10.106;2022-09-17T16:45:31;13.60;44.20
1011;DHT22;494;48.744;10.106;2022-09-17T16:48:00;13.40;44.60
1011;DHT22;494;48.744;10.106;2022-09-17T16:50:32;13.20;46.30
1011;DHT22;494;48.744;10.106;2022-09-17T16:53:02;13.00;46.60
1011;DHT22;494;48.744;10.106;2022-09-17T16:55:31;13.00;47.40
1011;DHT22;494;48.744;10.106;2022-09-17T16:57:59;13.10;48.00
1011;DHT22;494;48.744;10.106;2022-09-17T17:00:30;13.00;47.60
1011;DHT22;494;48.744;10.106;2022-09-17T17:02:58;13.00;48.00
1011;DHT22;494;48.744;10.106;2022-09-17T17:05:27;12.80;47.30
1011;DHT22;494;48.744;10.106;2022-09-17T17:07:56;12.70;48.40
1011;DHT22;494;48.744;10.106;2022-09-17T17:10:30;12.60;48.90
1011;DHT22;494;48.744;10.106;2022-09-17T17:12:59;12.60;48.60
1011;DHT22;494;48.744;10.106;2022-09-17T17:15:29;12.70;48.40